Time;durP1;ratioP1;P1;durP2;ratioP2;P2;SDS_P1;SDS_P2;PMS_P1;PMS_P2;Temp;Humidity;BMP_temperature;BMP_pressure;BME280_temperature;BME280_humidity;BME280_pressure;Samples;Min_cycle;Max_cycle;Signal;HPM_P1;HPM_P2
2022/02/16 00:00:26;;;;;;;4.33;3.30;;;6.10;99.90;;;;;;5073867;28;20458;-68
2022/02/16 00:02:53;;;;;;;5.40;3.63;;;6.20;99.90;;;;;;5076444;28;20493;-68
2022/02/16 00:05:20;;;;;;;3.00;2.80;;;6.20;99.90;;;;;;5077813;28;20471;-68
2022/02/16 00:07:47;;;;;;;4.43;3.03;;;6.20;99.90;;;;;;5077753;28;20460;-69
2022/02/16 00:10:16;;;;;;;5.50;3.10;;;6.20;99.90;;;;;;5077192;28;20469;-69
2022/02/16 00:12:47;;;;;;;4.00;3.00;;;6.20;99.90;;;;;;5077474;28;20511;-69
2022/02/16 00:15:16;;;;;;;5.23;3.63;;;6.20;99.90;;;;;;5077523;28;20450;-68
2022/02/16 00:17:44;;;;;;;4.33;2.87;;;6.20;99.90;;;;;;5077365;28;20462;-69
2022/02/16 00:20:15;;;;;;;7.00;3.00;;;6.20;99.90;;;;;;5077529;28;20450;-69
2022/02/16 00:22:41;;;;;;;3.33;2.70;;;6.30;99.90;;;;;;5077032;28;20454;-69
2022/02/16 00:25:08;;;;;;;3.03;2.70;;;6.30;99.90;;;;;;5077201;28;20458;-67
2022/02/16 00:27:35;;;;;;;2.97;2.50;;;6.30;99.90;;;;;;5077029;28;20811;-68
2022/02/16 00:30:02;;;;;;;4.67;2.77;;;6.40;99.90;;;;;;5077001;28;20486;-68
2022/02/16 00:32:30;;;;;;;4.27;2.90;;;6.40;99.90;;;;;;5076936;28;20450;-69
2022/02/16 00:34:57;;;;;;;3.90;2.80;;;6.40;99.90;;;;;;5077252;28;20482;-68
2022/02/16 00:37:23;;;;;;;3.13;2.83;;;6.40;99.90;;;;;;5076920;28;20458;-68
2022/02/16 00:39:52;;;;;;;3.40;2.77;;;6.40;99.90;;;;;;5077307;28;20782;-68
2022/02/16 00:42:18;;;;;;;5.70;2.87;;;6.30;99.90;;;;;;5076958;28;20473;-69
2022/02/16 00:44:45;;;;;;;3.13;2.83;;;6.30;99.90;;;;;;5077095;28;20461;-70
2022/02/16 00:47:12;;;;;;;3.87;2.80;;;6.30;99.90;;;;;;5078304;28;20458;-67
2022/02/16 00:49:41;;;;;;;3.43;3.10;;;6.30;99.90;;;;;;5078198;28;20473;-68
2022/02/16 00:52:08;;;;;;;5.27;2.57;;;6.20;99.90;;;;;;5076487;28;20462;-69
2022/02/16 00:54:37;;;;;;;3.30;2.93;;;6.10;99.90;;;;;;5076563;28;21033;-67
2022/02/16 00:57:04;;;;;;;4.30;2.90;;;6.10;99.90;;;;;;5076779;28;20465;-68
2022/02/16 00:59:32;;;;;;;4.03;3.10;;;6.00;99.90;;;;;;5078000;28;20462;-67
2022/02/16 01:01:59;;;;;;;3.20;2.90;;;6.00;99.90;;;;;;5078318;28;20458;-68
2022/02/16 01:04:25;;;;;;;4.90;3.23;;;6.00;99.90;;;;;;5077702;28;20454;-68
2022/02/16 01:06:53;;;;;;;6.57;3.13;;;5.90;99.90;;;;;;5076861;28;20459;-68
2022/02/16 01:09:20;;;;;;;7.77;3.47;;;5.90;99.90;;;;;;5076657;28;20498;-68
2022/02/16 01:11:48;;;;;;;4.00;2.77;;;5.80;99.90;;;;;;5076396;28;20454;-68
2022/02/16 01:14:15;;;;;;;3.33;3.03;;;5.80;99.90;;;;;;5075799;28;20478;-68
2022/02/16 01:16:42;;;;;;;3.93;3.10;;;5.80;99.90;;;;;;5076373;28;20457;-68
2022/02/16 01:19:08;;;;;;;6.13;3.30;;;5.70;99.90;;;;;;5076945;28;20476;-68
2022/02/16 01:21:37;;;;;;;3.80;2.70;;;5.70;99.90;;;;;;5076529;28;20458;-68
2022/02/16 01:24:06;;;;;;;3.80;3.03;;;5.70;99.90;;;;;;5076308;28;20450;-68
2022/02/16 01:26:33;;;;;;;4.03;3.00;;;5.60;99.90;;;;;;5076481;28;20803;-68
2022/02/16 01:29:00;;;;;;;3.43;2.97;;;5.50;99.90;;;;;;5076419;28;20513;-68
2022/02/16 01:31:27;;;;;;;3.77;2.80;;;5.50;99.90;;;;;;5076776;28;20539;-69
2022/02/16 01:33:53;;;;;;;4.63;3.53;;;5.50;99.90;;;;;;5076509;28;20539;-68
2022/02/16 01:36:20;;;;;;;5.97;3.80;;;5.50;99.90;;;;;;5076785;28;20462;-67
2022/02/16 01:38:47;;;;;;;10.53;4.20;;;5.50;99.90;;;;;;5076573;28;20915;-68
2022/02/16 01:41:16;;;;;;;6.67;4.30;;;5.50;99.90;;;;;;5077051;28;20768;-69
2022/02/16 01:43:47;;;;;;;4.70;3.17;;;5.50;99.90;;;;;;5076459;28;20459;-69
2022/02/16 01:46:14;;;;;;;5.40;3.50;;;5.40;99.90;;;;;;5076348;28;20458;-69
2022/02/16 01:48:41;;;;;;;7.90;4.13;;;5.30;99.90;;;;;;5076168;28;20512;-68
2022/02/16 01:51:08;;;;;;;11.50;4.23;;;5.30;99.90;;;;;;5075425;28;20458;-68
2022/02/16 01:53:35;;;;;;;8.10;4.83;;;5.30;99.90;;;;;;5075672;28;20485;-68
2022/02/16 01:56:02;;;;;;;5.53;3.97;;;5.20;99.90;;;;;;5075752;28;20469;-69
2022/02/16 01:58:33;;;;;;;4.53;3.80;;;5.20;99.90;;;;;;5075614;28;20466;-69
2022/02/16 02:01:01;;;;;;;5.27;3.70;;;5.30;99.90;;;;;;5075445;28;20504;-69
2022/02/16 02:03:28;;;;;;;6.67;4.40;;;5.20;99.90;;;;;;5076031;28;20515;-68
2022/02/16 02:05:57;;;;;;;6.07;4.10;;;5.20;99.90;;;;;;5075476;28;20925;-68
2022/02/16 02:08:24;;;;;;;9.30;4.70;;;5.30;99.90;;;;;;5075659;28;20573;-68
2022/02/16 02:10:54;;;;;;;6.30;3.83;;;5.30;99.90;;;;;;5075303;28;20814;-68
2022/02/16 02:13:21;;;;;;;6.20;3.90;;;5.30;99.90;;;;;;5074867;28;20458;-69
2022/02/16 02:15:49;;;;;;;4.53;4.13;;;5.30;99.90;;;;;;5075222;28;20459;-69
2022/02/16 02:18:17;;;;;;;6.27;4.53;;;5.20;99.90;;;;;;5074940;28;20473;-69
2022/02/16 02:20:46;;;;;;;9.83;4.33;;;5.20;99.90;;;;;;5075194;28;20462;-69
2022/02/16 02:23:13;;;;;;;5.80;4.50;;;5.20;99.90;;;;;;5074963;28;20458;-69
2022/02/16 02:25:50;;;;;;;4.80;4.40;;;5.30;99.90;;;;;;5073898;28;20496;-68
2022/02/16 02:28:17;;;;;;;7.47;3.83;;;5.20;99.90;;;;;;5075490;28;20450;-69
2022/02/16 02:30:44;;;;;;;5.97;4.53;;;5.20;99.90;;;;;;5074993;28;20446;-68
2022/02/16 02:33:13;;;;;;;6.80;4.33;;;5.20;99.90;;;;;;5075251;28;20466;-69
2022/02/16 02:35:40;;;;;;;8.37;4.40;;;5.20;99.90;;;;;;5074853;28;20489;-69
2022/02/16 02:38:11;;;;;;;4.33;3.80;;;5.20;99.90;;;;;;5074917;28;20470;-68
2022/02/16 02:40:38;;;;;;;7.87;4.30;;;5.20;99.90;;;;;;5074733;28;20891;-69
2022/02/16 02:43:06;;;;;;;4.87;4.27;;;5.20;99.90;;;;;;5074898;28;20450;-68
2022/02/16 02:45:32;;;;;;;9.10;4.47;;;5.20;99.90;;;;;;5074216;28;20455;-69
2022/02/16 02:47:59;;;;;;;8.73;4.33;;;5.20;99.90;;;;;;5074584;28;20523;-69
2022/02/16 02:50:26;;;;;;;6.33;4.50;;;5.20;99.90;;;;;;5076749;28;20830;-69
2022/02/16 02:52:53;;;;;;;6.30;4.80;;;5.20;99.90;;;;;;5077379;28;20470;-68
2022/02/16 02:55:21;;;;;;;12.83;4.70;;;5.30;99.90;;;;;;5076227;28;20474;-68
2022/02/16 02:57:50;;;;;;;4.90;4.40;;;5.30;99.90;;;;;;5074718;28;20465;-69
2022/02/16 03:00:17;;;;;;;6.00;4.33;;;5.30;99.90;;;;;;5074738;28;20462;-68
2022/02/16 03:02:43;;;;;;;7.10;4.90;;;5.40;99.90;;;;;;5074544;28;20553;-68
2022/02/16 03:05:11;;;;;;;7.47;4.50;;;5.40;99.90;;;;;;5074648;28;20754;-69
2022/02/16 03:07:38;;;;;;;4.77;4.27;;;5.40;99.90;;;;;;5074167;28;20519;-68
2022/02/16 03:10:08;;;;;;;6.00;4.40;;;5.50;99.90;;;;;;5074509;28;20472;-68
2022/02/16 03:12:36;;;;;;;4.70;4.27;;;5.50;99.90;;;;;;5074422;28;20769;-68
2022/02/16 03:15:03;;;;;;;5.20;3.97;;;5.50;99.90;;;;;;5074384;28;20844;-68
2022/02/16 03:17:30;;;;;;;9.43;4.20;;;5.50;99.90;;;;;;5074444;28;20461;-69
2022/02/16 03:19:57;;;;;;;6.40;4.50;;;5.60;99.90;;;;;;5074469;28;20777;-68
2022/02/16 03:22:24;;;;;;;5.60;3.93;;;5.60;99.90;;;;;;5074045;28;20458;-68
2022/02/16 03:24:53;;;;;;;3.63;3.33;;;5.60;99.90;;;;;;5074206;28;20942;-69
2022/02/16 03:27:20;;;;;;;4.50;3.63;;;5.60;99.90;;;;;;5074671;28;20481;-68
2022/02/16 03:29:48;;;;;;;5.63;3.70;;;5.70;99.90;;;;;;5073909;28;20482;-68
2022/02/16 03:32:15;;;;;;;4.17;3.77;;;5.70;99.90;;;;;;5073954;28;20469;-69
2022/02/16 03:34:42;;;;;;;6.73;4.33;;;5.60;99.90;;;;;;5074316;28;20531;-67
2022/02/16 03:37:09;;;;;;;4.57;3.80;;;5.70;99.90;;;;;;5075875;28;20458;-68
2022/02/16 03:39:36;;;;;;;5.80;3.90;;;5.70;99.90;;;;;;5078282;28;20450;-68
2022/02/16 03:42:03;;;;;;;5.10;4.23;;;5.70;99.90;;;;;;5078392;28;20454;-67
2022/02/16 03:44:30;;;;;;;7.30;3.93;;;5.70;99.90;;;;;;5078090;28;20473;-69
2022/02/16 03:46:58;;;;;;;6.13;3.83;;;5.70;99.90;;;;;;5078127;28;20458;-69
2022/02/16 03:49:26;;;;;;;6.60;3.70;;;5.70;99.90;;;;;;5078359;28;20469;-68
2022/02/16 03:51:52;;;;;;;5.80;3.97;;;5.80;99.90;;;;;;5077897;28;20515;-68
2022/02/16 03:54:19;;;;;;;7.63;4.10;;;5.80;99.90;;;;;;5077920;28;20489;-68
2022/02/16 03:56:46;;;;;;;4.13;3.30;;;5.80;99.90;;;;;;5077980;28;20911;-68
2022/02/16 03:59:13;;;;;;;4.93;4.27;;;5.80;99.90;;;;;;5077626;28;20458;-68
2022/02/16 04:01:40;;;;;;;4.17;3.73;;;5.90;99.90;;;;;;5077879;28;20454;-68
2022/02/16 04:04:08;;;;;;;4.03;3.40;;;5.90;99.90;;;;;;5077834;28;20454;-68
2022/02/16 04:06:34;;;;;;;6.23;4.13;;;5.90;99.90;;;;;;5078060;28;20903;-69
2022/02/16 04:09:01;;;;;;;6.73;3.73;;;5.90;99.90;;;;;;5077727;28;20836;-67
2022/02/16 04:11:28;;;;;;;4.30;3.30;;;6.00;99.90;;;;;;5078850;28;20469;-67
2022/02/16 04:13:55;;;;;;;5.17;3.80;;;6.00;99.90;;;;;;5079752;28;20454;-68
2022/02/16 04:16:23;;;;;;;3.67;3.33;;;6.00;99.90;;;;;;5077677;28;20450;-68
2022/02/16 04:18:53;;;;;;;4.87;4.23;;;6.00;99.90;;;;;;5077822;28;20830;-68
2022/02/16 04:21:21;;;;;;;5.97;3.63;;;6.00;99.90;;;;;;5077248;28;20449;-67
2022/02/16 04:23:47;;;;;;;6.17;3.57;;;6.00;99.90;;;;;;5077371;28;20486;-68
2022/02/16 04:26:14;;;;;;;5.67;3.70;;;6.10;99.90;;;;;;5077449;28;20452;-68
2022/02/16 04:28:41;;;;;;;3.80;3.40;;;6.10;99.90;;;;;;5077010;28;20488;-69
2022/02/16 04:31:10;;;;;;;6.27;4.13;;;6.10;99.90;;;;;;5076989;28;20439;-67
2022/02/16 04:33:37;;;;;;;6.33;4.33;;;6.10;99.90;;;;;;5077322;28;20771;-68
2022/02/16 04:36:04;;;;;;;3.53;3.23;;;6.10;99.90;;;;;;5077335;28;20489;-68
2022/02/16 04:38:33;;;;;;;4.00;3.60;;;6.10;99.90;;;;;;5077114;28;20465;-68
2022/02/16 04:40:59;;;;;;;5.53;3.70;;;6.10;99.90;;;;;;5076954;28;20793;-67
2022/02/16 04:43:28;;;;;;;8.67;3.50;;;6.10;99.90;;;;;;5077356;28;20450;-69
2022/02/16 04:45:55;;;;;;;4.60;3.60;;;6.10;99.90;;;;;;5077031;28;20454;-69
2022/02/16 04:48:24;;;;;;;3.40;3.10;;;6.10;99.90;;;;;;5075687;28;20455;-68
2022/02/16 04:50:51;;;;;;;5.33;3.60;;;6.10;99.90;;;;;;5076913;28;20454;-68
2022/02/16 04:53:18;;;;;;;5.33;3.70;;;6.10;99.90;;;;;;5076849;28;20465;-68
2022/02/16 04:55:46;;;;;;;3.37;3.00;;;6.10;99.90;;;;;;5076601;28;20484;-68
2022/02/16 04:58:12;;;;;;;8.70;4.40;;;6.20;99.90;;;;;;5076961;28;20551;-68
2022/02/16 05:00:39;;;;;;;3.63;2.93;;;6.20;99.90;;;;;;5076602;28;20792;-68
2022/02/16 05:03:06;;;;;;;4.10;3.10;;;6.20;99.90;;;;;;5076418;28;20462;-68
2022/02/16 05:05:32;;;;;;;4.10;3.20;;;6.20;99.90;;;;;;5075908;28;20480;-68
2022/02/16 05:07:59;;;;;;;5.33;3.70;;;6.20;99.90;;;;;;5076239;28;20934;-68
2022/02/16 05:10:26;;;;;;;5.43;3.83;;;6.30;99.90;;;;;;5076313;28;20458;-67
2022/02/16 05:12:54;;;;;;;3.60;3.30;;;6.30;99.90;;;;;;5076459;28;20929;-69
2022/02/16 05:15:21;;;;;;;4.70;3.40;;;6.30;99.90;;;;;;5076156;28;20478;-69
2022/02/16 05:17:47;;;;;;;8.33;3.47;;;6.30;99.90;;;;;;5076179;28;20464;-68
2022/02/16 05:20:14;;;;;;;4.23;3.10;;;6.30;99.90;;;;;;5076210;28;20458;-69
2022/02/16 05:22:41;;;;;;;4.27;3.30;;;6.30;99.90;;;;;;5076370;28;20463;-69
2022/02/16 05:25:08;;;;;;;5.00;3.90;;;6.40;99.90;;;;;;5076280;28;20806;-68
2022/02/16 05:27:34;;;;;;;3.90;3.50;;;6.40;99.90;;;;;;5076171;28;20454;-68
2022/02/16 05:30:03;;;;;;;5.80;3.17;;;6.40;99.90;;;;;;5076361;28;20497;-68
2022/02/16 05:32:31;;;;;;;3.43;3.03;;;6.40;99.90;;;;;;5076248;28;20487;-68
2022/02/16 05:35:00;;;;;;;6.43;3.03;;;6.40;99.90;;;;;;5076024;28;20486;-68
2022/02/16 05:37:27;;;;;;;8.17;4.10;;;6.40;99.90;;;;;;5076753;28;20519;-68
2022/02/16 05:39:54;;;;;;;7.93;3.60;;;6.40;99.90;;;;;;5075756;28;20465;-68
2022/02/16 05:42:22;;;;;;;3.73;3.40;;;6.40;99.90;;;;;;5075895;28;20461;-68
2022/02/16 05:44:49;;;;;;;4.23;3.77;;;6.40;99.90;;;;;;5075845;28;20492;-68
2022/02/16 05:47:17;;;;;;;6.40;3.47;;;6.40;99.90;;;;;;5075500;28;20914;-68
2022/02/16 05:49:44;;;;;;;3.73;3.43;;;6.40;99.90;;;;;;5076157;28;20454;-68
2022/02/16 05:52:12;;;;;;;4.77;3.63;;;6.40;99.90;;;;;;5075611;28;20465;-68
2022/02/16 05:54:39;;;;;;;6.40;3.80;;;6.40;99.90;;;;;;5075445;28;20454;-68
2022/02/16 05:57:07;;;;;;;6.40;4.00;;;6.40;99.90;;;;;;5075314;28;20536;-68
2022/02/16 05:59:34;;;;;;;5.80;3.80;;;6.30;99.90;;;;;;5075291;28;20515;-68
2022/02/16 06:02:03;;;;;;;3.77;3.40;;;6.30;99.90;;;;;;5075371;28;20552;-68
2022/02/16 06:04:31;;;;;;;3.43;3.13;;;6.30;99.90;;;;;;5075648;28;20782;-68
2022/02/16 06:07:00;;;;;;;3.77;3.47;;;6.30;99.90;;;;;;5076799;28;20453;-68
2022/02/16 06:09:27;;;;;;;4.10;3.53;;;6.30;99.90;;;;;;5078748;28;20458;-68
2022/02/16 06:11:54;;;;;;;8.20;3.93;;;6.20;99.90;;;;;;5080365;28;20465;-68
2022/02/16 06:14:20;;;;;;;4.10;3.40;;;6.20;99.90;;;;;;5078709;28;20458;-68
2022/02/16 06:16:49;;;;;;;8.00;3.73;;;6.20;99.90;;;;;;5076480;28;20849;-68
2022/02/16 06:19:16;;;;;;;3.80;3.50;;;6.20;99.90;;;;;;5075832;28;20462;-68
2022/02/16 06:21:44;;;;;;;4.37;3.37;;;6.10;99.90;;;;;;5075869;28;20454;-68
2022/02/16 06:24:11;;;;;;;3.53;3.23;;;6.10;99.90;;;;;;5074839;28;20919;-68
2022/02/16 06:26:38;;;;;;;5.13;4.43;;;6.10;99.90;;;;;;5075060;28;20519;-67
2022/02/16 06:29:04;;;;;;;5.00;4.60;;;6.10;99.90;;;;;;5074361;28;20489;-69
2022/02/16 06:31:32;;;;;;;5.10;3.90;;;6.10;99.90;;;;;;5075111;28;20779;-69
2022/02/16 06:33:59;;;;;;;5.00;3.60;;;6.00;99.90;;;;;;5075075;28;20833;-69
2022/02/16 06:36:26;;;;;;;4.97;4.03;;;6.00;99.90;;;;;;5075041;28;20486;-69
2022/02/16 06:38:54;;;;;;;5.07;3.90;;;6.00;99.90;;;;;;5075094;28;20516;-69
2022/02/16 06:41:21;;;;;;;5.70;3.67;;;6.00;99.90;;;;;;5075109;28;20458;-69
2022/02/16 06:43:48;;;;;;;5.20;3.73;;;6.00;99.90;;;;;;5075224;28;20458;-69
2022/02/16 06:46:14;;;;;;;3.87;3.50;;;6.00;99.90;;;;;;5074928;28;20465;-69
2022/02/16 06:48:41;;;;;;;4.10;3.63;;;6.00;99.90;;;;;;5074877;28;20549;-69
2022/02/16 06:51:08;;;;;;;4.30;3.90;;;6.00;99.90;;;;;;5075185;28;20511;-68
2022/02/16 06:53:35;;;;;;;4.33;3.50;;;6.00;99.90;;;;;;5074768;28;20728;-69
2022/02/16 06:56:03;;;;;;;5.77;3.90;;;6.00;99.90;;;;;;5074817;28;20482;-69
2022/02/16 06:58:30;;;;;;;7.63;3.60;;;6.00;99.90;;;;;;5074858;28;20462;-69
2022/02/16 07:00:56;;;;;;;6.33;5.03;;;6.00;99.90;;;;;;5074711;28;20454;-69
2022/02/16 07:03:23;;;;;;;4.07;3.63;;;5.90;99.90;;;;;;5074398;28;20458;-68
2022/02/16 07:05:50;;;;;;;4.17;3.70;;;5.90;99.90;;;;;;5074653;28;20450;-68
2022/02/16 07:08:20;;;;;;;3.40;3.10;;;5.90;99.90;;;;;;5074598;28;20457;-68
2022/02/16 07:10:47;;;;;;;4.83;3.67;;;6.00;99.90;;;;;;5074992;28;20538;-72
2022/02/16 07:13:18;;;;;;;5.00;3.70;;;5.90;99.90;;;;;;5078055;28;20945;-69
2022/02/16 07:15:44;;;;;;;3.47;3.17;;;5.90;99.90;;;;;;5078294;28;20477;-69
2022/02/16 07:18:11;;;;;;;9.77;4.00;;;5.90;99.90;;;;;;5078871;28;20531;-69
2022/02/16 07:20:38;;;;;;;4.90;4.40;;;5.90;99.90;;;;;;5078649;28;20774;-69
2022/02/16 07:23:05;;;;;;;3.40;2.80;;;5.90;99.90;;;;;;5078715;28;20454;-69
2022/02/16 07:25:32;;;;;;;4.60;3.50;;;6.00;99.90;;;;;;5078982;28;20536;-70
2022/02/16 07:27:58;;;;;;;3.73;3.43;;;5.90;99.90;;;;;;5078819;28;20596;-69
2022/02/16 07:30:26;;;;;;;3.10;2.80;;;5.90;99.90;;;;;;5078174;28;20585;-69
2022/02/16 07:32:55;;;;;;;3.73;3.43;;;5.90;99.90;;;;;;5078453;28;20461;-69
2022/02/16 07:35:21;;;;;;;8.70;3.97;;;6.00;99.90;;;;;;5078018;28;20478;-68
2022/02/16 07:37:51;;;;;;;3.33;3.13;;;5.90;99.90;;;;;;5078822;28;20470;-69
2022/02/16 07:40:18;;;;;;;4.80;3.83;;;6.00;99.90;;;;;;5078822;28;20508;-69
2022/02/16 07:42:44;;;;;;;3.63;3.30;;;6.00;99.90;;;;;;5079340;28;20465;-69
2022/02/16 07:45:11;;;;;;;4.70;3.40;;;6.00;99.90;;;;;;5078644;28;20818;-69
2022/02/16 07:47:39;;;;;;;3.60;2.73;;;6.00;99.90;;;;;;5078230;28;20515;-70
2022/02/16 07:50:06;;;;;;;3.40;3.10;;;6.00;99.90;;;;;;5078043;28;20461;-69
2022/02/16 07:52:37;;;;;;;4.20;3.10;;;6.00;99.90;;;;;;5078256;28;20461;-69
2022/02/16 07:55:04;;;;;;;3.50;2.93;;;6.10;99.90;;;;;;5079105;28;20450;-68
2022/02/16 07:57:33;;;;;;;3.33;3.03;;;6.10;99.90;;;;;;5077928;28;20585;-69
2022/02/16 08:00:00;;;;;;;3.67;3.27;;;6.10;99.90;;;;;;5078001;28;20553;-68
2022/02/16 08:02:26;;;;;;;3.70;3.23;;;6.10;99.90;;;;;;5078729;28;20533;-68
2022/02/16 08:04:54;;;;;;;6.40;3.03;;;6.10;99.90;;;;;;5079092;28;20461;-69
2022/02/16 08:07:21;;;;;;;4.17;2.93;;;6.10;99.90;;;;;;5079360;28;20460;-69
2022/02/16 08:09:48;;;;;;;3.03;2.70;;;6.10;99.90;;;;;;5079725;28;20460;-69
2022/02/16 08:12:15;;;;;;;3.07;2.80;;;6.10;99.90;;;;;;5079688;28;20454;-69
2022/02/16 08:14:45;;;;;;;5.10;2.87;;;6.10;99.90;;;;;;5080450;28;20461;-69
2022/02/16 08:17:11;;;;;;;5.10;2.90;;;6.10;99.90;;;;;;5079591;28;20484;-69
2022/02/16 08:19:38;;;;;;;3.10;2.67;;;6.20;99.90;;;;;;5078906;28;20785;-69
2022/02/16 08:22:06;;;;;;;3.00;2.40;;;6.20;99.90;;;;;;5078100;28;20462;-70
2022/02/16 08:24:33;;;;;;;3.33;2.40;;;6.20;99.90;;;;;;5077981;28;20458;-68
2022/02/16 08:27:00;;;;;;;3.40;2.50;;;6.20;99.90;;;;;;5077485;28;20760;-68
2022/02/16 08:29:28;;;;;;;3.13;2.13;;;6.30;99.90;;;;;;5077143;28;20493;-69
2022/02/16 08:31:54;;;;;;;2.43;2.23;;;6.30;99.90;;;;;;5077560;28;20480;-69
2022/02/16 08:34:21;;;;;;;4.00;2.00;;;6.30;99.90;;;;;;5077432;28;20539;-68
2022/02/16 08:36:50;;;;;;;3.40;2.67;;;6.30;99.90;;;;;;5077058;28;20482;-69
2022/02/16 08:39:18;;;;;;;3.20;2.50;;;6.40;99.90;;;;;;5076805;28;20923;-70
2022/02/16 08:41:47;;;;;;;3.20;2.10;;;6.40;99.90;;;;;;5076750;28;20462;-68
2022/02/16 08:44:14;;;;;;;2.40;2.20;;;6.40;99.90;;;;;;5077077;28;20458;-69
2022/02/16 08:46:43;;;;;;;2.20;2.00;;;6.40;99.90;;;;;;5077345;28;20480;-69
2022/02/16 08:49:09;;;;;;;2.10;1.90;;;6.50;99.90;;;;;;5077887;28;20469;-69
2022/02/16 08:51:38;;;;;;;2.03;1.83;;;6.50;99.90;;;;;;5077267;28;20911;-69
2022/02/16 08:54:05;;;;;;;2.00;1.80;;;6.50;99.90;;;;;;5076845;28;20764;-69
2022/02/16 08:56:36;;;;;;;1.70;1.53;;;6.50;99.90;;;;;;5076567;28;20508;-69
2022/02/16 08:59:07;;;;;;;1.83;1.50;;;6.50;99.90;;;;;;5076807;28;20573;-69
2022/02/16 09:01:34;;;;;;;2.03;1.83;;;6.50;99.90;;;;;;5076968;28;20449;-69
2022/02/16 09:04:02;;;;;;;1.63;1.40;;;6.60;99.90;;;;;;5076355;28;20915;-68
2022/02/16 09:06:30;;;;;;;1.83;1.47;;;6.60;99.90;;;;;;5076252;28;20496;-68
2022/02/16 09:08:57;;;;;;;1.43;1.33;;;6.70;99.90;;;;;;5076532;28;20458;-68
2022/02/16 09:11:24;;;;;;;2.40;1.77;;;6.70;99.90;;;;;;5076555;28;20458;-68
2022/02/16 09:13:52;;;;;;;1.70;1.60;;;6.70;99.90;;;;;;5076187;28;20459;-68
2022/02/16 09:16:19;;;;;;;1.40;1.30;;;6.70;99.90;;;;;;5076240;28;20478;-69
2022/02/16 09:18:46;;;;;;;1.70;1.33;;;6.70;99.90;;;;;;5075930;28;20469;-69
2022/02/16 09:21:13;;;;;;;2.20;1.63;;;6.70;99.90;;;;;;5076573;28;20458;-69
2022/02/16 09:23:41;;;;;;;4.27;2.07;;;6.70;99.90;;;;;;5076556;28;20469;-69
2022/02/16 09:26:08;;;;;;;1.80;1.50;;;6.70;99.90;;;;;;5076323;28;20461;-69
2022/02/16 09:28:36;;;;;;;2.73;1.90;;;6.80;99.90;;;;;;5077498;28;20526;-68
2022/02/16 09:31:05;;;;;;;1.63;1.40;;;6.80;99.90;;;;;;5080531;28;20778;-68
2022/02/16 09:33:32;;;;;;;1.70;1.60;;;6.70;99.90;;;;;;5078670;28;20454;-69
2022/02/16 09:35:58;;;;;;;1.50;1.33;;;6.80;99.90;;;;;;5075416;28;20482;-68
2022/02/16 09:38:30;;;;;;;2.13;1.50;;;6.80;99.90;;;;;;5076274;28;20469;-68
2022/02/16 09:40:56;;;;;;;3.07;1.63;;;6.80;99.90;;;;;;5075775;28;20465;-69
2022/02/16 09:43:24;;;;;;;1.80;1.60;;;6.80;99.90;;;;;;5075752;28;20450;-68
2022/02/16 09:45:53;;;;;;;1.97;1.67;;;6.90;99.90;;;;;;5075328;28;20548;-69
2022/02/16 09:48:24;;;;;;;1.70;1.53;;;6.90;99.90;;;;;;5075863;28;20458;-69
2022/02/16 09:50:52;;;;;;;1.70;1.33;;;6.90;99.90;;;;;;5076057;28;20439;-69
2022/02/16 09:53:19;;;;;;;2.13;1.80;;;6.90;99.90;;;;;;5075772;28;20457;-69
2022/02/16 09:55:47;;;;;;;1.97;1.33;;;6.90;99.90;;;;;;5075133;28;20458;-69
2022/02/16 09:58:16;;;;;;;1.40;1.23;;;6.90;99.90;;;;;;5075766;28;20452;-69
2022/02/16 10:01:00;;;;;;;3.00;1.37;;;6.90;99.90;;;;;;5076017;28;20458;-68
2022/02/16 10:03:28;;;;;;;1.97;1.40;;;6.90;99.90;;;;;;5075470;28;20435;-68
2022/02/16 10:05:55;;;;;;;3.20;1.50;;;6.80;99.90;;;;;;5075351;28;20461;-69
2022/02/16 10:08:40;;;;;;;2.37;1.50;;;6.80;99.90;;;;;;5075247;28;20455;-69
2022/02/16 10:11:08;;;;;;;1.60;1.47;;;6.80;99.90;;;;;;5075349;28;20492;-69
2022/02/16 10:13:38;;;;;;;1.40;1.20;;;6.80;99.90;;;;;;5075063;28;20458;-69
2022/02/16 10:16:05;;;;;;;1.50;1.40;;;6.70;99.90;;;;;;5075235;28;20450;-70
2022/02/16 10:18:34;;;;;;;3.60;2.10;;;6.70;99.90;;;;;;5075289;28;20466;-69
2022/02/16 10:21:07;;;;;;;1.33;1.23;;;6.70;99.90;;;;;;5075746;28;20454;-69
2022/02/16 10:23:44;;;;;;;5.20;2.87;;;6.70;99.90;;;;;;5075501;28;20472;-70
2022/02/16 10:26:11;;;;;;;2.60;1.80;;;6.70;99.90;;;;;;5074982;28;20449;-70
2022/02/16 10:28:43;;;;;;;3.43;2.20;;;6.70;99.90;;;;;;5074901;28;21865;-71
2022/02/16 10:31:11;;;;;;;1.50;1.40;;;6.70;99.90;;;;;;5074817;28;20448;-70
2022/02/16 10:33:43;;;;;;;4.40;1.70;;;6.70;99.90;;;;;;5075463;28;20469;-71
2022/02/16 10:36:15;;;;;;;2.43;1.53;;;6.60;99.90;;;;;;5075197;28;20448;-71
2022/02/16 10:38:55;;;;;;;1.63;1.30;;;6.60;99.90;;;;;;5075268;28;20489;-70
2022/02/16 10:41:24;;;;;;;2.27;1.50;;;6.60;99.90;;;;;;5075817;28;20446;-71
2022/02/16 10:43:53;;;;;;;1.70;1.30;;;6.50;99.90;;;;;;5075625;28;20515;-70
2022/02/16 10:46:23;;;;;;;2.17;1.50;;;6.50;99.90;;;;;;5075031;28;20779;-70
2022/02/16 10:49:08;;;;;;;1.60;1.33;;;6.60;99.90;;;;;;5075550;28;20458;-71
2022/02/16 10:51:36;;;;;;;1.90;1.50;;;6.60;99.90;;;;;;5075734;28;20442;-70
2022/02/16 10:54:14;;;;;;;3.70;1.57;;;6.60;99.90;;;;;;5076704;28;20462;-72
2022/02/16 10:56:41;;;;;;;2.20;1.50;;;6.60;99.90;;;;;;5076415;28;20469;-72
2022/02/16 10:59:08;;;;;;;3.73;2.77;;;6.60;99.90;;;;;;5077257;28;20462;-72
2022/02/16 11:01:35;;;;;;;1.73;1.63;;;6.60;99.90;;;;;;5080565;28;20454;-72
2022/02/16 11:04:07;;;;;;;2.70;2.17;;;6.60;99.90;;;;;;5079946;28;20531;-71
2022/02/16 11:06:37;;;;;;;2.50;1.50;;;6.70;99.90;;;;;;5080015;28;20461;-72
2022/02/16 11:09:05;;;;;;;2.27;1.60;;;6.70;99.90;;;;;;5080428;28;20466;-73
2022/02/16 11:11:32;;;;;;;1.40;1.30;;;6.70;99.90;;;;;;5079909;28;20469;-72
2022/02/16 11:14:00;;;;;;;2.00;1.63;;;6.80;99.90;;;;;;5078382;28;20452;-73
2022/02/16 11:16:27;;;;;;;2.10;1.50;;;6.70;99.90;;;;;;5075794;28;20462;-72
2022/02/16 11:19:01;;;;;;;3.47;1.87;;;6.80;99.90;;;;;;5075474;28;20910;-71
2022/02/16 11:21:29;;;;;;;2.37;2.10;;;6.80;99.90;;;;;;5079453;28;20553;-72
2022/02/16 11:23:58;;;;;;;4.40;2.17;;;6.90;99.90;;;;;;5078789;28;20469;-72
2022/02/16 11:26:38;;;;;;;2.00;1.80;;;6.80;99.90;;;;;;5074849;28;20519;-72
2022/02/16 11:29:31;;;;;;;1.87;1.70;;;6.90;99.90;;;;;;5075123;28;20492;-72
2022/02/16 11:32:23;;;;;;;2.23;1.93;;;6.90;99.90;;;;;;5074516;28;20469;-72
2022/02/16 11:35:18;;;;;;;2.43;2.20;;;6.90;99.90;;;;;;5074865;28;20434;-72
2022/02/16 11:37:48;;;;;;;2.30;2.10;;;6.90;99.90;;;;;;5074775;28;20841;-71
2022/02/16 11:40:16;;;;;;;2.70;1.73;;;6.90;99.90;;;;;;5074916;28;20453;-71
2022/02/16 11:42:56;;;;;;;3.50;3.00;;;6.90;99.90;;;;;;5074360;28;20458;-71
2022/02/16 11:45:41;;;;;;;3.27;2.00;;;6.90;99.90;;;;;;5074391;28;20511;-73
2022/02/16 11:48:09;;;;;;;3.83;3.10;;;6.90;99.90;;;;;;5074689;28;20445;-71
2022/02/16 11:50:42;;;;;;;2.70;2.50;;;6.90;99.90;;;;;;5074271;28;20930;-71
2022/02/16 11:53:14;;;;;;;3.60;2.17;;;6.80;99.90;;;;;;5074556;28;20439;-72
2022/02/16 11:55:43;;;;;;;2.43;2.23;;;6.80;99.90;;;;;;5074929;28;20481;-71
2022/02/16 11:58:18;;;;;;;3.50;2.10;;;6.80;99.90;;;;;;5076351;28;20489;-72
2022/02/16 12:00:56;;;;;;;3.40;2.40;;;6.80;99.90;;;;;;5078889;28;20541;-72
2022/02/16 12:03:25;;;;;;;4.53;2.50;;;6.80;99.90;;;;;;5078387;28;20482;-72
2022/02/16 12:06:07;;;;;;;3.17;2.37;;;6.80;99.90;;;;;;5077964;28;20453;-72
2022/02/16 12:08:37;;;;;;;2.80;2.13;;;6.80;99.90;;;;;;5077696;28;20491;-72
2022/02/16 12:11:23;;;;;;;3.87;3.00;;;6.80;99.90;;;;;;5077899;28;20511;-72
2022/02/16 12:13:54;;;;;;;3.17;2.50;;;6.80;99.90;;;;;;5079259;28;20451;-73
2022/02/16 12:16:24;;;;;;;2.37;2.17;;;6.80;99.90;;;;;;5077945;28;20850;-72
2022/02/16 12:18:54;;;;;;;3.10;2.80;;;6.80;99.90;;;;;;5077695;28;20477;-72
2022/02/16 12:21:26;;;;;;;2.70;2.50;;;6.80;99.90;;;;;;5077353;28;20507;-72
2022/02/16 12:24:00;;;;;;;2.90;2.43;;;6.80;99.90;;;;;;5077555;28;20458;-73
2022/02/16 12:26:36;;;;;;;2.90;2.60;;;6.80;99.90;;;;;;5077762;28;20458;-72
2022/02/16 12:29:05;;;;;;;3.90;2.57;;;6.80;99.90;;;;;;5077229;28;20497;-72
2022/02/16 12:31:38;;;;;;;3.53;2.77;;;6.90;99.90;;;;;;5077356;28;20550;-72
2022/02/16 12:34:08;;;;;;;3.80;2.80;;;6.90;99.90;;;;;;5077586;28;20443;-73
2022/02/16 12:36:37;;;;;;;5.30;2.80;;;6.90;99.90;;;;;;5078553;28;20461;-72
2022/02/16 12:39:10;;;;;;;2.63;2.43;;;6.90;99.90;;;;;;5078082;28;20845;-72
2022/02/16 12:41:38;;;;;;;3.37;3.07;;;6.90;99.90;;;;;;5078255;28;20442;-72
2022/02/16 12:44:07;;;;;;;2.60;2.40;;;7.00;99.90;;;;;;5078563;28;20469;-72
2022/02/16 12:46:35;;;;;;;4.80;3.50;;;7.00;99.90;;;;;;5078156;28;20458;-72
2022/02/16 12:49:03;;;;;;;3.10;2.90;;;7.00;99.90;;;;;;5078789;28;20577;-72
2022/02/16 12:51:33;;;;;;;4.07;2.67;;;7.10;99.90;;;;;;5078292;28;20949;-73
2022/02/16 12:54:06;;;;;;;3.30;3.00;;;7.20;99.90;;;;;;5077443;28;20496;-73
2022/02/16 12:56:35;;;;;;;2.43;2.23;;;7.30;99.90;;;;;;5079049;28;20527;-72
2022/02/16 12:59:22;;;;;;;2.50;2.30;;;7.30;99.90;;;;;;5080458;28;20547;-73
2022/02/16 13:01:50;;;;;;;2.60;1.93;;;7.40;99.90;;;;;;5078121;28;20453;-74
2022/02/16 13:04:17;;;;;;;3.30;2.43;;;7.40;99.90;;;;;;5078067;28;20454;-71